Time;durP1;ratioP1;P1;durP2;ratioP2;P2;SDS_P1;SDS_P2;PMS_P1;PMS_P2;Temp;Humidity;BMP_temperature;BMP_pressure;BME280_temperature;BME280_humidity;BME280_pressure;Samples;Min_cycle;Max_cycle;Signal;HPM_P1;HPM_P2
2022/08/02 00:00:15;;;;;;;9.55;2.60;;;17.10;99.90;17.30;98841.00;;;;5003778;28;82161;-64
2022/08/02 00:02:42;;;;;;;8.10;2.80;;;17.20;99.90;17.20;98834.00;;;;5001714;28;82293;-64
2022/08/02 00:05:10;;;;;;;10.15;3.13;;;17.40;99.90;17.20;98840.00;;;;5003542;28;82630;-63
2022/08/02 00:07:36;;;;;;;7.40;2.30;;;17.10;99.90;17.20;98842.00;;;;5004180;28;82202;-63
2022/08/02 00:10:05;;;;;;;5.30;2.47;;;17.00;99.90;17.10;98849.00;;;;5004198;28;81785;-63
2022/08/02 00:12:32;;;;;;;5.18;2.35;;;17.50;99.90;17.10;98837.00;;;;5003168;28;82831;-63
2022/08/02 00:14:58;;;;;;;4.50;2.42;;;16.90;99.90;17.00;98829.00;;;;5003051;28;84006;-63
2022/08/02 00:17:24;;;;;;;6.30;2.25;;;17.20;99.90;16.90;98839.00;;;;5007034;28;83201;-63
2022/08/02 00:19:50;;;;;;;7.00;2.42;;;17.00;99.90;16.90;98840.00;;;;5000184;28;82053;-63
2022/08/02 00:22:17;;;;;;;4.05;2.30;;;;;16.90;98846.00;;;;5003856;28;82241;-63
2022/08/02 00:24:43;;;;;;;8.98;2.42;;;16.80;99.90;16.80;98836.00;;;;5003232;28;82782;-63
2022/08/02 00:27:09;;;;;;;4.88;2.55;;;17.00;99.90;16.80;98834.00;;;;5003503;28;83232;-63
2022/08/02 00:29:36;;;;;;;4.18;1.95;;;16.70;99.90;16.80;98829.00;;;;4997874;28;81983;-63
2022/08/02 00:32:03;;;;;;;7.47;2.60;;;17.20;99.90;16.80;98824.00;;;;5019945;28;82352;-59
2022/08/02 00:34:29;;;;;;;4.75;2.58;;;17.10;99.90;16.70;98829.00;;;;5003456;28;82903;-59
2022/08/02 00:36:55;;;;;;;7.88;2.30;;;16.80;99.90;16.70;98826.00;;;;5002731;28;82618;-59
2022/08/02 00:39:22;;;;;;;8.40;2.03;;;16.30;99.90;16.60;98829.00;;;;5002789;28;83488;-60
2022/08/02 00:41:51;;;;;;;9.30;2.53;;;16.90;99.90;16.60;98837.00;;;;5003468;28;82391;-61
2022/08/02 00:44:20;;;;;;;7.28;2.22;;;16.50;99.90;16.50;98827.00;;;;5003876;28;82618;-60
2022/08/02 00:46:46;;;;;;;8.60;2.50;;;16.40;99.90;16.50;98823.00;;;;5002319;28;82470;-59
2022/08/02 00:49:14;;;;;;;7.18;2.38;;;16.50;99.90;16.50;98829.00;;;;5003330;28;82936;-59
2022/08/02 00:51:40;;;;;;;5.65;2.60;;;16.30;99.90;16.50;98824.00;;;;5003972;28;83309;-59
2022/08/02 00:54:07;;;;;;;4.80;2.30;;;16.50;99.90;16.50;98828.00;;;;5003421;28;82003;-59
2022/08/02 00:56:34;;;;;;;8.95;2.40;;;16.40;99.90;16.50;98833.00;;;;5002720;28;83496;-60
2022/08/02 00:59:02;;;;;;;8.15;2.22;;;16.30;99.90;16.50;98833.00;;;;5002791;28;82674;-59
2022/08/02 01:01:37;;;;;;;7.68;2.53;;;16.50;99.90;16.40;98822.00;;;;5001681;28;82495;-59
2022/08/02 01:04:06;;;;;;;4.25;2.42;;;16.30;99.90;16.40;98835.00;;;;5002065;28;82828;-59
2022/08/02 01:06:33;;;;;;;3.95;2.30;;;16.30;99.90;16.30;98824.00;;;;5003232;28;83144;-59
2022/08/02 01:09:00;;;;;;;5.40;2.83;;;16.40;99.90;16.30;98824.00;;;;5001805;28;82111;-59
2022/08/02 01:11:28;;;;;;;3.85;2.15;;;15.90;99.90;16.20;98826.00;;;;5003226;28;83441;-59
2022/08/02 01:14:08;;;;;;;7.70;3.00;;;16.50;99.90;16.20;98820.00;;;;5003111;28;82625;-60
2022/08/02 01:17:00;;;;;;;5.05;2.10;;;16.10;99.90;16.10;98820.00;;;;4988183;28;83337;-60
2022/08/02 01:19:44;;;;;;;8.93;2.50;;;16.00;99.90;16.20;98822.00;;;;4999938;28;81980;-60
2022/08/02 01:22:40;;;;;;;8.07;2.53;;;16.00;99.90;16.10;98811.00;;;;5003259;28;83437;-60
2022/08/02 01:25:38;;;;;;;8.82;2.50;;;16.00;99.90;16.10;98807.00;;;;5000508;28;82639;-60
2022/08/02 01:28:27;;;;;;;7.93;2.63;;;15.90;99.90;16.20;98808.00;;;;4999857;28;82316;-59
2022/08/02 01:31:20;;;;;;;7.57;2.85;;;16.30;99.90;16.20;98814.00;;;;5000452;28;82822;-60
2022/08/02 01:34:09;;;;;;;8.00;3.03;;;16.40;99.90;16.30;98819.00;;;;5000686;28;83583;-59
2022/08/02 01:36:42;;;;;;;6.93;2.30;;;16.00;99.90;16.20;98821.00;;;;5004522;28;82661;-59
2022/08/02 01:39:13;;;;;;;6.85;3.33;;;16.20;99.90;16.20;98821.00;;;;5005142;28;83516;-59
2022/08/02 01:41:41;;;;;;;8.50;2.70;;;16.10;99.90;16.20;98814.00;;;;5005317;28;81899;-61
2022/08/02 01:44:09;;;;;;;8.52;3.15;;;16.30;99.90;16.20;98821.00;;;;4988724;28;83749;-61
2022/08/02 01:46:40;;;;;;;7.35;2.65;;;16.20;99.90;16.20;98820.00;;;;5004719;28;82486;-62
2022/08/02 01:49:12;;;;;;;14.90;3.13;;;16.10;99.90;16.20;98826.00;;;;5005514;28;83274;-61
2022/08/02 01:54:30;;;;;;;11.40;2.80;;;16.20;99.90;16.20;98826.00;;;;5006042;28;81981;-60
2022/08/02 01:56:58;;;;;;;8.90;2.40;;;16.20;99.90;16.20;98833.00;;;;5003652;28;83620;-59
2022/08/02 01:59:26;;;;;;;11.95;2.80;;;16.30;99.90;16.20;98829.00;;;;5004687;28;83282;-64
2022/08/02 02:01:55;;;;;;;13.45;3.00;;;14.00;99.90;16.20;98828.00;;;;4988136;28;82646;-63
2022/08/02 02:04:21;;;;;;;10.65;3.63;;;16.20;99.90;16.20;98830.00;;;;5005250;28;83318;-64
2022/08/02 02:06:49;;;;;;;12.77;3.00;;;16.10;99.90;16.20;98837.00;;;;5005584;28;82485;-64
2022/08/02 02:09:17;;;;;;;10.77;3.28;;;16.30;99.90;16.20;98830.00;;;;5004600;28;83294;-65
2022/08/02 02:11:45;;;;;;;6.57;2.92;;;16.40;99.90;16.20;98832.00;;;;5004878;28;81942;-65
2022/08/02 02:14:14;;;;;;;14.07;3.40;;;16.30;99.90;16.30;98836.00;;;;5006290;28;82018;-66
2022/08/02 02:16:43;;;;;;;9.02;3.17;;;16.20;99.90;16.30;98842.00;;;;5003946;28;82519;-66
2022/08/02 02:19:10;;;;;;;9.27;3.17;;;;;16.30;98837.00;;;;5004914;28;83840;-66
2022/08/02 02:21:36;;;;;;;10.98;3.40;;;16.40;99.90;16.30;98842.00;;;;5004390;28;82994;-66
2022/08/02 02:24:03;;;;;;;12.57;3.60;;;16.70;99.90;16.40;98842.00;;;;4987435;28;82513;-66
2022/08/02 02:26:31;;;;;;;12.68;3.20;;;16.60;99.90;16.40;98830.00;;;;5000540;28;82634;-66
2022/08/02 02:29:00;;;;;;;14.32;3.50;;;16.40;99.90;16.50;98829.00;;;;5004308;28;82147;-66
2022/08/02 02:31:33;;;;;;;10.35;3.45;;;16.40;99.90;16.50;98826.00;;;;5003879;28;83183;-66
2022/08/02 02:34:28;;;;;;;8.18;3.83;;;16.40;99.90;16.60;98834.00;;;;5006969;28;84490;-66
2022/08/02 02:36:58;;;;;;;12.32;3.20;;;16.90;99.90;16.80;98834.00;;;;5001482;28;84124;-66
2022/08/02 02:39:27;;;;;;;13.25;3.47;;;16.70;99.90;17.40;98833.00;;;;5004738;28;84168;-66
2022/08/02 02:41:58;;;;;;;9.13;3.65;;;17.90;99.90;18.20;98837.00;;;;5005102;28;81887;-65
2022/08/02 02:44:25;;;;;;;7.57;3.17;;;18.40;99.90;18.90;98832.00;;;;5004485;28;82178;-64
2022/08/02 02:46:54;;;;;;;9.77;2.88;;;18.90;99.90;19.40;98828.00;;;;5003099;28;84654;-65
2022/08/02 02:49:22;;;;;;;10.10;3.25;;;19.70;99.90;19.70;98825.00;;;;5004848;28;83689;-65
2022/08/02 02:51:49;;;;;;;10.50;2.97;;;;;19.90;98821.00;;;;5001646;28;81965;-65
2022/08/02 02:54:15;;;;;;;8.88;2.97;;;;;20.30;98825.00;;;;5003789;28;82120;-65
2022/08/02 02:56:43;;;;;;;9.05;3.00;;;20.30;99.90;20.70;98820.00;;;;5004180;28;82675;-65
2022/08/02 02:59:10;;;;;;;7.80;2.47;;;;;21.10;98818.00;;;;5005038;28;83434;-65
2022/08/02 03:01:36;;;;;;;10.50;2.85;;;20.90;99.90;21.40;98821.00;;;;5003809;28;82026;-65
2022/08/02 03:04:06;;;;;;;10.50;2.78;;;21.20;99.90;21.70;98824.00;;;;5003765;28;83672;-65
2022/08/02 03:06:35;;;;;;;6.47;2.55;;;21.70;99.90;22.00;98825.00;;;;5003481;28;82706;-65
2022/08/02 03:09:01;;;;;;;10.80;3.20;;;21.50;99.90;22.20;98819.00;;;;5004433;28;83523;-65
2022/08/02 03:11:28;;;;;;;6.90;2.55;;;21.80;99.90;22.40;98824.00;;;;5003662;28;83430;-64
2022/08/02 03:14:03;;;;;;;11.18;2.63;;;22.60;99.90;22.60;98816.00;;;;5004375;28;83420;-64
2022/08/02 03:16:29;;;;;;;8.38;2.67;;;22.20;99.90;22.80;98828.00;;;;5005445;28;82295;-64
2022/08/02 03:18:57;;;;;;;7.40;2.25;;;22.20;99.90;22.90;98816.00;;;;5005007;28;82029;-65
2022/08/02 03:21:23;;;;;;;14.95;2.55;;;22.60;99.90;23.40;98825.00;;;;5004671;28;81862;-64
2022/08/02 03:23:50;;;;;;;13.10;3.13;;;23.20;99.50;23.80;98830.00;;;;5004432;28;82978;-64
2022/08/02 03:26:16;;;;;;;10.88;2.67;;;;;23.60;98826.00;;;;5005224;28;83142;-64
2022/08/02 03:28:43;;;;;;;7.03;2.33;;;22.80;99.90;23.30;98828.00;;;;5005161;28;82528;-64
2022/08/02 03:31:09;;;;;;;8.55;2.67;;;22.80;99.90;23.20;98824.00;;;;5004762;28;81904;-64
2022/08/02 03:33:37;;;;;;;9.35;2.55;;;22.50;99.90;23.20;98826.00;;;;5004508;28;82377;-64
2022/08/02 03:36:12;;;;;;;7.32;2.75;;;22.50;99.70;23.00;98834.00;;;;5004569;28;83262;-63
2022/08/02 03:38:40;;;;;;;12.18;2.67;;;21.90;99.90;22.30;98841.00;;;;5004240;28;83144;-64
2022/08/02 03:41:10;;;;;;;13.23;2.90;;;21.00;99.90;21.60;98836.00;;;;5003923;28;82041;-63
2022/08/02 03:43:38;;;;;;;11.02;2.55;;;20.80;99.90;21.20;98826.00;;;;5003859;28;83506;-64
2022/08/02 03:46:07;;;;;;;9.15;2.65;;;20.60;99.90;20.80;98842.00;;;;5003915;28;82896;-63
2022/08/02 03:48:35;;;;;;;7.80;3.50;;;20.40;99.90;20.60;98842.00;;;;5004427;28;82296;-64
2022/08/02 03:51:02;;;;;;;8.10;2.40;;;19.70;99.90;20.50;98835.00;;;;4986879;28;81915;-64
2022/08/02 03:53:30;;;;;;;8.02;2.50;;;20.20;99.90;20.80;98845.00;;;;4987365;28;82509;-64
2022/08/02 03:55:58;;;;;;;10.13;3.05;;;20.40;99.90;20.90;98842.00;;;;5002181;28;83454;-64
2022/08/02 03:58:25;;;;;;;10.23;2.40;;;20.70;99.90;21.00;98843.00;;;;5002608;28;83876;-63
2022/08/02 04:00:53;;;;;;;10.98;3.38;;;20.50;99.90;20.90;98831.00;;;;5003571;28;83286;-64
2022/08/02 04:03:20;;;;;;;13.65;3.28;;;;;20.80;98844.00;;;;4985904;28;85975;-63
2022/08/02 04:05:47;;;;;;;5.85;2.75;;;20.30;99.90;20.80;98846.00;;;;5003749;28;83793;-63
2022/08/02 04:08:13;;;;;;;11.15;3.25;;;20.40;99.90;20.80;98850.00;;;;5004571;28;82152;-64
2022/08/02 04:13:31;;;;;;;14.15;3.22;;;20.10;99.90;20.80;98839.00;;;;5004077;28;83625;-64
2022/08/02 04:16:13;;;;;;;14.82;3.17;;;20.50;99.90;20.80;98843.00;;;;5002942;28;83068;-65
2022/08/02 04:18:49;;;;;;;12.68;3.03;;;20.40;99.90;20.70;98844.00;;;;5000308;28;82403;-65
2022/08/02 04:21:18;;;;;;;13.23;3.33;;;20.30;99.90;20.70;98846.00;;;;4999681;28;82121;-65
2022/08/02 04:23:46;;;;;;;9.25;2.90;;;20.40;99.90;20.70;98842.00;;;;4998292;28;82749;-63
2022/08/02 04:26:13;;;;;;;7.93;3.13;;;20.70;99.90;20.80;98846.00;;;;5001660;28;82841;-64
2022/08/02 04:28:41;;;;;;;6.63;2.97;;;20.50;99.90;21.00;98849.00;;;;5002393;28;84736;-64
2022/08/02 04:31:08;;;;;;;15.50;2.88;;;20.40;99.90;21.00;98851.00;;;;5002529;28;82528;-63
2022/08/02 04:33:35;;;;;;;14.50;3.90;;;20.60;99.90;21.00;98842.00;;;;4998498;28;83631;-63
2022/08/02 04:36:02;;;;;;;7.93;2.72;;;;;21.00;98843.00;;;;5003490;28;82879;-63
2022/08/02 04:38:29;;;;;;;12.05;3.35;;;;;21.10;98846.00;;;;5003624;28;82276;-64
2022/08/02 04:40:55;;;;;;;5.13;2.45;;;21.00;99.90;21.50;98843.00;;;;5002056;28;81937;-63
2022/08/02 04:43:22;;;;;;;9.52;3.17;;;21.50;99.90;21.70;98840.00;;;;5004304;28;82788;-64
2022/08/02 04:45:53;;;;;;;6.38;2.92;;;21.00;99.90;21.70;98855.00;;;;5002308;28;82496;-65
2022/08/02 04:48:21;;;;;;;7.35;2.65;;;21.10;99.90;21.60;98842.00;;;;5002334;28;84605;-64
2022/08/02 04:50:47;;;;;;;7.53;3.55;;;20.90;99.90;21.50;98850.00;;;;5002642;28;83248;-64
2022/08/02 04:53:14;;;;;;;8.45;3.03;;;21.00;99.90;21.70;98860.00;;;;5001977;28;84092;-64
2022/08/02 04:55:40;;;;;;;14.85;3.40;;;;;21.70;98855.00;;;;5002370;28;82695;-64
2022/08/02 04:58:07;;;;;;;10.20;3.50;;;;;21.90;98856.00;;;;5001200;28;83481;-64
2022/08/02 05:00:33;;;;;;;10.02;2.95;;;21.60;99.90;22.10;98845.00;;;;5002712;28;81917;-65
2022/08/02 05:03:00;;;;;;;15.32;4.57;;;21.60;99.90;22.20;98860.00;;;;5002398;28;82318;-65
2022/08/02 05:05:27;;;;;;;9.15;3.35;;;;;22.10;98839.00;;;;5002286;28;83670;-64
2022/08/02 05:07:54;;;;;;;9.45;2.85;;;22.00;99.90;22.80;98855.00;;;;5006403;28;82319;-64
2022/08/02 05:10:21;;;;;;;8.40;3.40;;;22.20;99.90;23.00;98843.00;;;;5005360;28;82755;-64
2022/08/02 05:12:47;;;;;;;9.82;2.75;;;23.00;99.90;23.40;98836.00;;;;5006157;28;82225;-64
2022/08/02 05:15:17;;;;;;;11.95;2.95;;;24.00;99.90;24.40;98848.00;;;;5005213;28;83643;-64
2022/08/02 05:17:45;;;;;;;9.25;2.90;;;24.70;99.90;25.30;98833.00;;;;5005766;28;84720;-64
2022/08/02 05:20:12;;;;;;;10.13;3.28;;;25.10;99.90;25.90;98839.00;;;;5006315;28;81951;-64
2022/08/02 05:22:39;;;;;;;7.35;2.67;;;25.10;99.90;26.00;98839.00;;;;5001282;28;83546;-64
2022/08/02 05:25:07;;;;;;;7.78;2.67;;;;;25.60;98841.00;;;;5005985;28;82289;-65
2022/08/02 05:27:33;;;;;;;14.63;3.83;;;24.60;99.90;25.10;98847.00;;;;5008768;28;82366;-64
2022/08/02 05:29:59;;;;;;;5.07;2.72;;;23.80;99.90;24.60;98844.00;;;;5006003;28;81907;-64
2022/08/02 05:32:27;;;;;;;10.00;3.08;;;;;24.40;98839.00;;;;5005675;28;83540;-64
2022/08/02 05:34:54;;;;;;;13.45;4.10;;;;;24.10;98832.00;;;;5005880;28;82905;-64
2022/08/02 05:37:22;;;;;;;9.05;3.38;;;;;23.80;98834.00;;;;5007592;28;82217;-65
2022/08/02 05:39:48;;;;;;;7.07;3.22;;;;;23.90;98837.00;;;;5005296;28;82812;-65
2022/08/02 05:42:15;;;;;;;10.15;3.13;;;;;23.70;98833.00;;;;5006030;28;82181;-64
2022/08/02 05:44:41;;;;;;;9.40;2.72;;;;;24.00;98840.00;;;;5004303;28;83776;-64
2022/08/02 05:47:08;;;;;;;9.38;2.88;;;;;23.80;98838.00;;;;5004041;28;82782;-64
2022/08/02 05:49:35;;;;;;;10.27;2.80;;;23.20;99.90;23.70;98838.00;;;;5006118;28;82018;-64
2022/08/02 05:52:17;;;;;;;6.95;2.67;;;23.00;99.90;23.90;98828.00;;;;5005584;28;82279;-64
2022/08/02 05:55:14;;;;;;;5.40;2.45;;;23.90;99.90;24.50;98836.00;;;;5006612;28;82878;-65
2022/08/02 05:58:05;;;;;;;5.65;2.78;;;24.40;99.90;25.20;98818.00;;;;5005414;28;82073;-64
2022/08/02 06:00:35;;;;;;;5.25;2.70;;;25.10;99.90;25.80;98840.00;;;;5004150;28;82348;-64
2022/08/02 06:03:01;;;;;;;6.68;2.30;;;;;26.20;98830.00;;;;5005383;28;82795;-64
2022/08/02 06:05:33;;;;;;;7.35;2.70;;;25.10;98.50;25.90;98834.00;;;;5005027;28;83329;-65
2022/08/02 06:08:03;;;;;;;8.20;2.58;;;24.80;99.30;25.40;98830.00;;;;5006229;28;84505;-64
2022/08/02 06:10:30;;;;;;;8.98;2.80;;;;;25.00;98833.00;;;;5005887;28;81953;-64
2022/08/02 06:13:09;;;;;;;6.65;2.50;;;24.10;99.90;24.70;98831.00;;;;5005046;28;84872;-65
2022/08/02 06:15:39;;;;;;;7.72;3.08;;;24.70;99.90;24.50;98831.00;;;;5005977;28;82526;-64
2022/08/02 06:18:07;;;;;;;12.82;4.35;;;23.80;99.90;24.30;98830.00;;;;5004760;28;82467;-64
2022/08/02 06:20:35;;;;;;;10.07;3.08;;;23.70;99.90;24.20;98827.00;;;;5005968;28;81990;-64
2022/08/02 06:23:06;;;;;;;12.63;3.30;;;23.60;99.90;24.10;98820.00;;;;5005849;28;82510;-64
2022/08/02 06:25:36;;;;;;;11.23;3.17;;;23.80;99.90;24.10;98825.00;;;;4987557;28;84967;-64
2022/08/02 06:28:05;;;;;;;10.20;3.58;;;23.90;99.90;24.30;98822.00;;;;5013321;28;82418;-63
2022/08/02 06:30:33;;;;;;;7.63;3.00;;;23.80;99.90;24.30;98824.00;;;;5004559;28;83235;-64
2022/08/02 06:33:00;;;;;;;13.10;3.38;;;24.00;99.90;24.30;98826.00;;;;5014411;28;82113;-64
2022/08/02 06:35:52;;;;;;;6.82;2.85;;;24.00;99.90;24.00;98819.00;;;;5009999;28;82570;-64
2022/08/02 06:38:24;;;;;;;9.30;3.00;;;23.50;99.90;23.80;98817.00;;;;5017271;28;81897;-64
2022/08/02 06:41:05;;;;;;;16.05;3.45;;;23.70;99.90;24.00;98816.00;;;;5013097;28;82044;-65
2022/08/02 07:35:44;;;;;;;9.13;2.35;;;;;24.20;98811.00;;;;5036537;28;81622;-65
2022/08/02 07:38:11;;;;;;;6.05;2.28;;;24.00;99.90;24.40;98809.00;;;;5018217;28;81643;-65
2022/08/02 07:40:37;;;;;;;4.18;1.73;;;;;24.50;98806.00;;;;5021558;28;81582;-65
2022/08/02 07:43:03;;;;;;;7.72;2.10;;;24.20;99.90;24.60;98820.00;;;;5023167;28;82413;-65
2022/08/02 07:45:31;;;;;;;4.07;2.13;;;24.60;99.90;24.60;98808.00;;;;5023278;28;81582;-65
2022/08/02 07:47:57;;;;;;;8.88;2.20;;;24.60;99.90;24.70;98810.00;;;;5022804;28;81738;-65
2022/08/02 07:50:24;;;;;;;7.00;2.53;;;;;24.60;98808.00;;;;5023216;28;81594;-65
2022/08/02 07:52:51;;;;;;;4.80;1.70;;;24.30;99.90;24.50;98807.00;;;;5009394;28;82195;-65
2022/08/02 07:55:17;;;;;;;10.63;2.95;;;;;24.60;98809.00;;;;5003179;28;81835;-65
2022/08/02 07:57:44;;;;;;;6.03;2.03;;;24.50;99.90;24.80;98811.00;;;;5010673;28;81515;-65
2022/08/02 08:00:12;;;;;;;5.72;2.25;;;24.50;99.90;24.80;98817.00;;;;5008969;28;82435;-65
2022/08/02 08:02:39;;;;;;;4.88;2.17;;;24.60;99.90;24.80;98813.00;;;;5013686;28;83362;-66
2022/08/02 08:05:06;;;;;;;9.90;2.55;;;24.50;98.00;24.80;98820.00;;;;5006313;28;82065;-64
2022/08/02 08:07:33;;;;;;;4.82;2.33;;;;;24.90;98816.00;;;;5021037;28;81651;-64
2022/08/02 08:10:00;;;;;;;6.57;2.10;;;;;24.90;98806.00;;;;5011207;28;81699;-64
2022/08/02 08:12:27;;;;;;;7.68;2.20;;;24.60;99.90;24.90;98803.00;;;;5020918;28;83234;-64
2022/08/02 08:14:53;;;;;;;5.18;2.05;;;;;25.10;98804.00;;;;5020929;28;81806;-64
2022/08/02 08:17:20;;;;;;;3.72;1.90;;;;;25.10;98810.00;;;;5012158;28;82236;-64
2022/08/02 08:19:46;;;;;;;8.15;2.00;;;25.10;99.20;25.10;98814.00;;;;5015025;28;81714;-64
2022/08/02 08:22:13;;;;;;;3.53;1.92;;;;;25.10;98806.00;;;;5009484;28;81644;-64
2022/08/02 08:24:39;;;;;;;6.20;2.20;;;;;25.10;98800.00;;;;5004782;28;81806;-64
2022/08/02 08:27:09;;;;;;;10.25;2.47;;;;;25.20;98798.00;;;;5014181;28;83669;-64
2022/08/02 08:29:36;;;;;;;5.78;2.20;;;;;25.40;98799.00;;;;5019677;28;81934;-64
2022/08/02 08:32:02;;;;;;;10.27;2.35;;;;;25.60;98798.00;;;;5018660;28;82328;-64
2022/08/02 08:34:30;;;;;;;9.00;2.92;;;;;25.70;98800.00;;;;5018552;28;83185;-64
2022/08/02 08:36:56;;;;;;;4.18;1.88;;;25.70;99.90;25.60;98792.00;;;;5019430;28;81711;-64
2022/08/02 08:39:22;;;;;;;9.95;2.40;;;;;25.60;98786.00;;;;5018618;28;81790;-64
2022/08/02 08:41:49;;;;;;;3.95;1.85;;;25.50;99.90;25.70;98797.00;;;;5020538;28;82507;-66
2022/08/02 08:44:15;;;;;;;6.80;2.03;;;25.20;99.90;25.40;98799.00;;;;5020768;28;81820;-64
2022/08/02 08:46:45;;;;;;;2.30;1.33;;;25.10;94.50;25.30;98777.00;;;;5004707;28;82716;-64
2022/08/02 08:49:24;;;;;;;5.80;1.83;;;25.10;94.30;25.40;98776.00;;;;4994841;28;81525;-64
2022/08/02 08:51:55;;;;;;;4.15;1.60;;;25.00;99.90;25.30;98776.00;;;;4993020;28;82270;-64
2022/08/02 08:54:26;;;;;;;5.05;1.50;;;25.20;93.80;25.40;98783.00;;;;4993812;28;82888;-63
2022/08/02 08:56:54;;;;;;;3.80;1.60;;;24.90;99.90;25.50;98782.00;;;;4992521;28;82659;-64
2022/08/02 08:59:21;;;;;;;6.30;1.60;;;25.30;99.90;25.60;98791.00;;;;5002446;28;81639;-64
2022/08/02 09:01:49;;;;;;;2.17;1.42;;;25.10;93.10;25.50;98787.00;;;;4996210;28;82522;-64
2022/08/02 09:04:17;;;;;;;3.63;1.20;;;25.10;93.00;25.40;98791.00;;;;5004870;28;81939;-64
2022/08/02 09:06:43;;;;;;;4.22;1.40;;;24.70;98.90;25.30;98765.00;;;;5006280;28;81668;-62
2022/08/02 09:09:09;;;;;;;5.28;1.92;;;;;25.50;98760.00;;;;5021205;28;81650;-63
2022/08/02 09:11:36;;;;;;;2.50;1.40;;;;;25.70;98769.00;;;;4993393;28;83672;-62
2022/08/02 09:14:03;;;;;;;2.55;1.35;;;25.30;99.90;25.50;98776.00;;;;4995710;28;81935;-64
2022/08/02 09:16:42;;;;;;;2.95;1.20;;;24.90;99.90;25.20;98764.00;;;;4994912;28;81622;-62
2022/08/02 09:19:28;;;;;;;6.90;1.50;;;24.50;99.90;25.10;98777.00;;;;5003511;28;82135;-63
2022/08/02 09:22:06;;;;;;;6.25;1.52;;;24.60;94.40;25.00;98778.00;;;;5004943;28;85209;-63
2022/08/02 09:24:48;;;;;;;3.35;1.70;;;24.60;94.90;25.00;98786.00;;;;5003043;28;82611;-64
2022/08/02 09:27:16;;;;;;;;;;;24.60;95.20;25.10;98773.00;;;;4997957;28;82417;-64
2022/08/02 09:29:53;;;;;;;2.22;1.52;;;24.80;94.20;25.20;98766.00;;;;4995741;28;83441;-63
2022/08/02 09:32:19;;;;;;;7.88;2.00;;;;;25.50;98762.00;;;;4999906;28;82880;-65
2022/08/02 09:34:54;;;;;;;5.55;1.42;;;25.40;99.50;26.10;98764.00;;;;4995328;28;81937;-63
2022/08/02 09:37:29;;;;;;;5.18;1.35;;;25.80;99.90;26.10;98780.00;;;;5003271;28;81881;-63
2022/08/02 09:40:01;;;;;;;5.60;1.40;;;25.30;99.90;25.80;98768.00;;;;5002672;28;81557;-64
2022/08/02 09:42:30;;;;;;;4.30;1.90;;;;;25.70;98769.00;;;;4997640;28;81660;-64
2022/08/02 09:44:59;;;;;;;2.15;1.40;;;25.30;94.30;25.80;98774.00;;;;4995688;28;82300;-63
2022/08/02 09:47:28;;;;;;;2.13;1.48;;;25.70;99.90;25.90;98775.00;;;;5001836;28;81756;-63
2022/08/02 09:49:56;;;;;;;1.98;1.50;;;25.60;93.30;26.00;98761.00;;;;5005766;28;82050;-63
2022/08/02 09:52:30;;;;;;;9.75;2.08;;;25.80;93.10;26.30;98771.00;;;;5004262;28;83447;-63
2022/08/02 09:55:06;;;;;;;2.80;2.10;;;26.20;92.60;26.70;98768.00;;;;4997786;28;81769;-63
2022/08/02 09:57:32;;;;;;;9.07;3.95;;;;;26.90;98761.00;;;;5000100;28;81584;-63
2022/08/02 09:59:59;;;;;;;5.53;1.60;;;26.40;95.70;27.10;98752.00;;;;5001496;28;81740;-63
2022/08/02 10:02:25;;;;;;;6.72;1.63;;;26.40;91.90;27.00;98767.00;;;;5004116;28;82224;-62
2022/08/02 10:04:52;;;;;;;4.68;1.52;;;;;26.80;98758.00;;;;5004516;28;81926;-63
2022/08/02 10:07:20;;;;;;;3.70;1.70;;;26.10;92.10;26.70;98761.00;;;;5004297;28;82341;-63
2022/08/02 10:09:47;;;;;;;5.15;1.45;;;;;26.70;98771.00;;;;5001105;28;82184;-63
2022/08/02 10:12:14;;;;;;;2.95;1.48;;;26.30;99.90;26.60;98766.00;;;;4993667;28;82614;-63
2022/08/02 10:14:42;;;;;;;4.75;1.73;;;29.00;93.10;26.70;98764.00;;;;5000358;28;82803;-64
2022/08/02 10:17:09;;;;;;;2.17;1.10;;;26.30;91.60;26.70;98762.00;;;;4999533;28;81670;-64
2022/08/02 10:19:35;;;;;;;4.43;1.60;;;;;26.50;98771.00;;;;4995958;28;81641;-64
2022/08/02 10:22:05;;;;;;;4.90;1.60;;;25.90;93.20;26.30;98779.00;;;;4992175;28;81675;-64
2022/08/02 10:24:36;;;;;;;3.22;1.65;;;25.80;99.90;26.00;98770.00;;;;4994857;28;82912;-64
2022/08/02 10:27:03;;;;;;;3.88;1.45;;;25.20;99.90;25.70;98778.00;;;;4999100;28;81725;-64
2022/08/02 10:29:35;;;;;;;2.70;2.15;;;25.10;99.90;25.60;98782.00;;;;4996263;28;81801;-64
2022/08/02 10:32:08;;;;;;;5.05;1.40;;;25.20;99.90;25.60;98768.00;;;;4993511;28;83431;-64
2022/08/02 10:34:53;;;;;;;6.70;1.67;;;25.20;92.50;25.60;98769.00;;;;4993219;28;81866;-62
2022/08/02 10:37:22;;;;;;;4.97;1.85;;;25.20;92.40;25.50;98771.00;;;;4995540;28;81566;-63
2022/08/02 10:39:56;;;;;;;2.83;1.63;;;25.40;92.30;25.70;98758.00;;;;4995590;28;82024;-63
2022/08/02 10:42:46;;;;;;;5.57;1.42;;;25.60;92.10;25.90;98753.00;;;;4994746;28;84367;-63
2022/08/02 10:45:16;;;;;;;2.28;1.42;;;25.50;99.90;26.10;98752.00;;;;4996747;28;82450;-63
2022/08/02 10:48:13;;;;;;;2.88;1.50;;;26.00;99.90;26.40;98751.00;;;;4995565;28;81715;-63
2022/08/02 10:50:45;;;;;;;2.17;1.58;;;26.10;91.30;26.40;98744.00;;;;4993921;28;81620;-64
2022/08/02 10:53:32;;;;;;;5.50;1.45;;;26.30;93.30;26.40;98753.00;;;;4993628;28;81774;-64
2022/08/02 10:56:02;;;;;;;4.57;1.70;;;25.90;91.40;26.30;98750.00;;;;4988290;28;82825;-62
2022/08/02 10:58:31;;;;;;;2.83;1.50;;;26.20;99.90;26.40;98747.00;;;;4994597;28;82763;-63
2022/08/02 11:01:26;;;;;;;5.03;2.05;;;26.10;91.10;26.40;98733.00;;;;4993966;28;82005;-63
2022/08/02 11:03:59;;;;;;;4.90;1.70;;;25.90;91.90;26.50;98753.00;;;;4990611;28;83293;-62
2022/08/02 11:06:25;;;;;;;2.00;1.50;;;;;26.60;98747.00;;;;4999816;28;81991;-63
2022/08/02 11:09:30;;;;;;;4.30;1.85;;;25.90;99.90;26.50;98753.00;;;;4995434;28;81665;-64
2022/08/02 11:12:12;;;;;;;4.38;1.70;;;26.20;90.90;26.60;98748.00;;;;4994354;28;81654;-64
2022/08/02 11:14:41;;;;;;;4.88;2.13;;;25.90;95.20;26.60;98739.00;;;;4994546;28;82314;-64
2022/08/02 11:17:18;;;;;;;5.05;1.52;;;26.40;90.90;26.80;98736.00;;;;4994127;28;82172;-64
2022/08/02 11:20:13;;;;;;;5.18;1.55;;;26.80;99.90;26.90;98739.00;;;;4992877;28;81722;-64
2022/08/02 11:22:41;;;;;;;3.83;1.92;;;26.70;89.00;27.20;98740.00;;;;4994826;28;81775;-64
2022/08/02 11:25:25;;;;;;;3.08;1.50;;;26.70;89.60;27.20;98735.00;;;;4992044;28;82033;-64
2022/08/02 11:27:54;;;;;;;2.13;1.50;;;30.70;91.30;27.00;98737.00;;;;4991453;28;81793;-64
2022/08/02 11:30:21;;;;;;;3.25;1.40;;;26.50;89.30;26.90;98745.00;;;;4995109;28;81766;-64
2022/08/02 11:32:49;;;;;;;4.78;1.90;;;26.30;89.60;26.80;98733.00;;;;4991445;28;81787;-64
2022/08/02 11:35:15;;;;;;;7.28;2.03;;;26.00;99.90;26.70;98743.00;;;;4996757;28;82255;-64
2022/08/02 11:37:43;;;;;;;7.80;1.70;;;26.30;99.90;26.60;98744.00;;;;4995150;28;83072;-64
2022/08/02 11:40:17;;;;;;;5.15;1.80;;;26.30;90.20;26.70;98747.00;;;;4994059;28;81970;-64
2022/08/02 11:42:49;;;;;;;3.35;1.40;;;26.60;99.90;26.90;98752.00;;;;4993019;28;82874;-64
2022/08/02 11:45:16;;;;;;;5.00;1.73;;;26.60;88.60;27.10;98746.00;;;;4994929;28;83351;-63
2022/08/02 11:47:53;;;;;;;4.63;2.17;;;26.70;88.50;27.10;98743.00;;;;4994378;28;82766;-63
2022/08/02 11:50:24;;;;;;;4.75;3.00;;;26.70;88.80;27.00;98740.00;;;;4997112;28;82097;-63
2022/08/02 11:52:54;;;;;;;;;;;26.70;89.60;27.00;98739.00;;;;4999293;28;82274;-63
2022/08/02 11:55:31;;;;;;;3.30;1.60;;;26.50;99.90;27.00;98745.00;;;;5001918;28;81930;-62
2022/08/02 11:58:02;;;;;;;2.58;1.52;;;26.70;89.80;27.10;98744.00;;;;4988972;28;84495;-63
2022/08/02 12:00:29;;;;;;;4.20;1.60;;;;;27.10;98737.00;;;;4996902;28;84416;-63
2022/08/02 12:02:55;;;;;;;6.30;1.75;;;;;27.00;98746.00;;;;4984273;28;81915;-63
2022/08/02 12:05:22;;;;;;;6.97;1.40;;;26.60;88.90;27.00;98749.00;;;;4993078;28;83323;-64
2022/08/02 12:07:50;;;;;;;3.83;1.42;;;26.70;89.00;27.00;98748.00;;;;4996934;28;82727;-62
2022/08/02 12:10:20;;;;;;;3.83;1.60;;;26.50;89.40;26.90;98753.00;;;;5002726;28;82071;-62
2022/08/02 12:12:59;;;;;;;4.95;1.50;;;26.40;87.80;26.70;98752.00;;;;4992728;28;81898;-62
2022/08/02 12:15:30;;;;;;;3.53;1.45;;;26.80;99.90;26.80;98755.00;;;;4994126;28;83813;-63
2022/08/02 12:20:42;;;;;;;5.15;1.90;;;26.40;90.30;26.70;98762.00;;;;4997394;28;82358;-62